Saint Augustine, FL

10:17 AM EDT on August 30, 2015 (GMT -0400)
Saint Augustine | | Change Station
CLOSE
Current Station
Airport
Location: St. Augustine,
Elevation: 10 ft
Nearby Weather Stations

Elev 10 ft 29.96 °N, 81.34 °W | Updated 19 minutes ago

Overcast
Overcast
80 °F
Feels Like 84 °F
N
17
Wind Variable Wind from ESE
Gusts 21 mph

Today
High -- | Low -- °F
--% Chance of Precip.
Yesterday
High -- | Low -- °F
Precip. -- in
7:01 AM 7:50 PM
Full, 99% visible
Pressure 30.04 in
Visibility 6.0 miles
Clouds Scattered Clouds 1900 ft
Mostly Cloudy 2300 ft
Overcast 3700 ft
Heat Index 84 °F
Dew Point 74 °F
Humidity 81%
Rainfall 0.22 in
Snow Depth Not available.
UV 2 out of 12
Pollen 2.90 out of 12
Air Quality Not available.
Flu Activity Not available.
METAR KSGJ 301358Z 12015G18KT 6SM HZ SCT019 BKN023 OVC037 27/23 A3004 RMK AO2 LTG DSNT N-SE SLP172 T02670233
Pressure 30.04 in
Visibility 6.0 miles
Clouds Scattered Clouds 1900 ft
Mostly Cloudy 2300 ft
Overcast 3700 ft
Heat Index 84 °F
Dew Point 74 °F
Humidity 81%
Rainfall 0.22 in
Snow Depth Not available.
UV 2 out of 12
Pollen 2.90 out of 12
Air Quality Not available.
Flu Activity Not available.
METAR KSGJ 301358Z 12015G18KT 6SM HZ SCT019 BKN023 OVC037 27/23 A3004 RMK AO2 LTG DSNT N-SE SLP172 T02670233

10-Day Weather Forecast

×

Almanac

Astronomy

Aug. 30, 2015 Rise Set
Actual Time
Civil Twilight
Nautical Twilight
Astronomical Twilight
Moon
Length of Visible Light
Length of Day
Tomorrow will be .
, % of the Moon is Illuminated

Today's Extremes

State Highs State Lows

Community

WunderPhotos

Upload Photos

1,850,968 photos uploaded!

WunderBlogs® & News

Nearby

Air Quality

  Air Quality AQ Index Pollutant
Not available.

Snow Depth

Station Depth Elevation

Earthquake Activity

City Distance Mag. Time & Date
Minimum magnitude displayed is 2.5.

Coastal Water Temperatures

Place Temperature

Stations

Nearby Weather Stations

Station Location Temp. Windchill Dew Point Humidity Wind Precip. Elev Updated Type